Time;durP1;ratioP1;P1;durP2;ratioP2;P2;SDS_P1;SDS_P2;PMS_P1;PMS_P2;Temp;Humidity;BMP_temperature;BMP_pressure;BME280_temperature;BME280_humidity;BME280_pressure;Samples;Min_cycle;Max_cycle;Signal;HPM_P1;HPM_P2
2021/06/22 00:01:03;;;;;;;19.13;17.05;;;23.20;68.30;;;;;;4942197;29;20160;-82
2021/06/22 00:03:31;;;;;;;18.00;16.15;;;23.30;68.50;;;;;;4959027;29;20217;-82
2021/06/22 00:05:57;;;;;;;18.90;16.90;;;23.20;68.50;;;;;;4942279;29;20197;-83
2021/06/22 00:08:23;;;;;;;19.00;17.00;;;23.20;68.70;;;;;;4942445;29;20165;-82
2021/06/22 00:10:50;;;;;;;18.15;16.30;;;23.20;68.70;;;;;;4958502;29;20640;-83
2021/06/22 00:13:16;;;;;;;19.58;16.77;;;23.20;68.60;;;;;;4958025;29;20699;-83
2021/06/22 00:15:42;;;;;;;19.75;17.60;;;23.20;68.60;;;;;;4926542;29;20309;-83
2021/06/22 00:18:08;;;;;;;18.70;16.75;;;23.20;68.70;;;;;;4942095;29;20237;-83
2021/06/22 00:20:35;;;;;;;19.58;17.13;;;23.20;68.70;;;;;;4958287;29;20516;-84
2021/06/22 00:23:05;;;;;;;20.05;17.95;;;23.20;68.70;;;;;;4941343;29;20189;-82
2021/06/22 00:25:34;;;;;;;18.95;16.98;;;23.20;68.70;;;;;;4925498;29;20209;-83
2021/06/22 00:27:59;;;;;;;19.38;17.38;;;23.20;68.80;;;;;;4941119;29;20224;-83
2021/06/22 00:30:25;;;;;;;20.20;17.65;;;23.20;68.90;;;;;;4941448;29;20188;-84
2021/06/22 00:32:51;;;;;;;20.50;18.40;;;23.10;68.90;;;;;;4942086;29;20158;-83
2021/06/22 00:35:17;;;;;;;19.88;17.77;;;23.20;68.90;;;;;;4957902;29;20177;-84
2021/06/22 00:37:43;;;;;;;19.23;17.17;;;23.20;69.00;;;;;;4941661;29;20154;-82
2021/06/22 00:40:10;;;;;;;19.00;17.02;;;23.20;68.80;;;;;;4958092;29;20154;-82
2021/06/22 00:42:40;;;;;;;20.52;18.35;;;23.20;68.90;;;;;;4941861;29;20188;-83
2021/06/22 00:45:06;;;;;;;19.67;17.58;;;23.20;68.90;;;;;;4926177;29;20201;-82
2021/06/22 00:47:32;;;;;;;20.40;18.25;;;23.10;68.90;;;;;;4925520;29;20211;-83
2021/06/22 00:49:57;;;;;;;19.10;17.10;;;23.20;69.00;;;;;;4941341;29;20229;-83
2021/06/22 00:52:28;;;;;;;19.90;17.80;;;23.10;68.80;;;;;;4957470;29;20153;-83
2021/06/22 00:54:57;;;;;;;19.77;17.67;;;23.20;69.00;;;;;;4925379;29;20644;-83
2021/06/22 00:57:25;;;;;;;20.33;18.17;;;23.20;69.00;;;;;;4924882;29;20201;-83
2021/06/22 00:59:54;;;;;;;21.02;18.80;;;23.10;69.00;;;;;;4909339;29;20189;-82
2021/06/22 01:02:22;;;;;;;20.20;18.10;;;23.10;69.00;;;;;;4941036;29;20545;-83
2021/06/22 01:04:50;;;;;;;20.98;18.77;;;23.10;69.00;;;;;;4956455;29;20737;-83
2021/06/22 01:07:17;;;;;;;20.75;18.58;;;23.10;69.10;;;;;;4956433;29;20299;-83
2021/06/22 01:09:45;;;;;;;19.92;17.83;;;23.10;69.10;;;;;;4925023;29;20185;-82
2021/06/22 01:12:12;;;;;;;19.60;17.50;;;23.10;69.10;;;;;;4939574;29;20195;-82
2021/06/22 01:14:43;;;;;;;20.50;17.90;;;23.10;69.10;;;;;;4956433;29;20189;-82
2021/06/22 01:17:10;;;;;;;19.33;17.33;;;23.10;69.20;;;;;;4924855;29;20196;-83
2021/06/22 01:19:44;;;;;;;20.13;18.00;;;23.10;69.20;;;;;;4940201;29;20185;-83
2021/06/22 01:22:14;;;;;;;21.45;18.60;;;23.10;69.20;;;;;;4940885;29;20228;-82
2021/06/22 01:24:44;;;;;;;20.60;18.40;;;23.10;69.20;;;;;;4924746;29;20207;-84
2021/06/22 01:27:09;;;;;;;20.45;18.33;;;23.10;69.30;;;;;;4916940;29;20241;-84
2021/06/22 01:29:37;;;;;;;19.95;17.85;;;23.10;69.30;;;;;;4902779;29;20179;-83
2021/06/22 01:32:07;;;;;;;19.98;17.83;;;23.10;69.30;;;;;;4917724;29;20266;-83
2021/06/22 01:34:35;;;;;;;21.63;19.33;;;23.10;69.30;;;;;;4918231;29;20187;-82
2021/06/22 01:37:05;;;;;;;20.45;18.30;;;23.10;69.40;;;;;;4933711;29;20183;-82
2021/06/22 01:39:33;;;;;;;19.73;17.63;;;23.10;69.40;;;;;;4918038;29;20728;-83
2021/06/22 01:42:03;;;;;;;20.10;17.95;;;23.00;69.30;;;;;;4917599;29;20183;-83
2021/06/22 01:44:30;;;;;;;20.52;18.33;;;23.10;69.50;;;;;;4902356;29;20179;-82
2021/06/22 01:46:57;;;;;;;20.02;17.92;;;23.00;69.50;;;;;;4901627;29;20218;-83
2021/06/22 01:49:25;;;;;;;20.30;18.08;;;23.00;69.60;;;;;;4933358;29;20190;-83
2021/06/22 01:51:54;;;;;;;20.48;18.27;;;23.00;69.50;;;;;;4917819;29;20265;-82
2021/06/22 01:54:21;;;;;;;20.52;18.40;;;23.00;69.50;;;;;;4917840;29;20187;-82
2021/06/22 01:56:51;;;;;;;21.10;18.85;;;23.00;69.50;;;;;;4917490;29;20238;-83
2021/06/22 01:59:16;;;;;;;20.55;18.23;;;23.00;69.60;;;;;;4902795;29;20175;-82
2021/06/22 02:01:43;;;;;;;20.95;18.73;;;23.00;69.60;;;;;;4902474;29;20234;-83
2021/06/22 02:04:09;;;;;;;20.40;18.27;;;23.00;69.70;;;;;;4918099;29;20186;-83
2021/06/22 02:06:37;;;;;;;21.13;18.90;;;23.00;69.70;;;;;;4902253;29;20194;-82
2021/06/22 02:09:03;;;;;;;20.23;18.13;;;23.00;69.70;;;;;;4917722;29;20163;-84
2021/06/22 02:11:29;;;;;;;20.13;18.02;;;23.00;69.60;;;;;;4917946;29;20174;-84
2021/06/22 02:13:54;;;;;;;20.27;18.08;;;22.90;69.80;;;;;;4886349;29;20270;-82
2021/06/22 02:16:21;;;;;;;20.83;18.50;;;23.00;69.80;;;;;;4918148;29;20170;-82
2021/06/22 02:18:47;;;;;;;22.23;19.50;;;23.00;69.90;;;;;;4917658;29;20159;-82
2021/06/22 02:21:13;;;;;;;21.80;19.50;;;23.00;70.00;;;;;;4902425;29;20587;-83
2021/06/22 02:23:39;;;;;;;21.35;19.15;;;23.00;69.90;;;;;;4901082;29;20167;-83
2021/06/22 02:26:08;;;;;;;21.05;18.80;;;23.00;69.90;;;;;;4887127;29;20223;-83
2021/06/22 02:28:34;;;;;;;21.85;19.30;;;23.00;69.90;;;;;;4901092;29;20226;-82
2021/06/22 02:31:00;;;;;;;21.33;19.02;;;23.00;70.00;;;;;;4901629;29;20607;-82
2021/06/22 02:33:26;;;;;;;20.50;18.38;;;22.90;69.90;;;;;;4886294;29;20173;-83
2021/06/22 02:35:53;;;;;;;21.25;18.98;;;22.90;69.90;;;;;;4901759;29;20170;-82
2021/06/22 02:38:19;;;;;;;21.60;19.30;;;22.90;69.90;;;;;;4917648;29;20194;-84
2021/06/22 02:40:49;;;;;;;20.67;18.30;;;23.00;70.90;;;;;;4885860;29;20638;-83
2021/06/22 02:43:15;;;;;;;21.48;19.25;;;22.90;70.80;;;;;;4916439;29;20210;-82
2021/06/22 02:45:40;;;;;;;21.73;19.42;;;23.00;70.00;;;;;;4918409;29;20563;-83
2021/06/22 02:48:10;;;;;;;20.50;18.30;;;22.90;69.90;;;;;;4918043;29;20666;-82
2021/06/22 02:50:36;;;;;;;21.48;19.13;;;23.00;70.10;;;;;;4886277;29;20686;-83
2021/06/22 02:53:01;;;;;;;21.80;19.50;;;23.00;70.00;;;;;;4918428;29;20201;-82
2021/06/22 02:55:27;;;;;;;21.48;19.17;;;22.90;70.00;;;;;;4916936;29;20568;-82
2021/06/22 02:57:56;;;;;;;21.90;18.67;;;22.90;70.00;;;;;;4901162;29;20258;-82
2021/06/22 03:00:26;;;;;;;22.38;19.80;;;22.90;70.10;;;;;;4916150;29;20193;-82
2021/06/22 03:02:52;;;;;;;20.58;18.38;;;22.90;70.10;;;;;;4916138;29;20219;-83
2021/06/22 03:05:20;;;;;;;21.85;19.55;;;23.00;70.10;;;;;;4901322;29;20194;-82
2021/06/22 03:07:46;;;;;;;22.23;19.83;;;22.90;70.10;;;;;;4915881;29;20309;-83
2021/06/22 03:10:13;;;;;;;21.42;19.17;;;22.90;70.20;;;;;;4916800;29;20187;-82
2021/06/22 03:12:39;;;;;;;21.27;18.98;;;22.90;70.10;;;;;;4916481;29;20154;-82
2021/06/22 03:15:07;;;;;;;22.27;19.88;;;22.90;70.20;;;;;;4885696;29;20606;-82
2021/06/22 03:17:32;;;;;;;21.65;19.35;;;22.90;70.10;;;;;;4916536;29;20208;-82
2021/06/22 03:19:58;;;;;;;21.98;19.58;;;22.90;70.30;;;;;;4885158;29;20178;-83
2021/06/22 03:22:24;;;;;;;22.42;19.67;;;22.90;70.10;;;;;;4916782;29;20175;-83
2021/06/22 03:24:49;;;;;;;22.00;19.70;;;22.90;70.30;;;;;;4917390;29;20296;-82
2021/06/22 03:27:15;;;;;;;22.10;19.70;;;22.90;70.10;;;;;;4909669;29;20228;-82
2021/06/22 03:29:40;;;;;;;21.35;19.00;;;22.90;70.20;;;;;;4954665;29;20161;-82
2021/06/22 03:32:06;;;;;;;21.95;19.23;;;22.90;70.00;;;;;;4954343;29;20157;-83
2021/06/22 03:34:36;;;;;;;20.77;18.55;;;22.90;70.10;;;;;;4955461;28;20154;-83
2021/06/22 03:37:07;;;;;;;22.45;19.65;;;22.90;70.10;;;;;;4926760;29;20279;-82
2021/06/22 03:39:34;;;;;;;22.60;20.15;;;22.90;70.10;;;;;;4926120;29;20240;-82
2021/06/22 03:42:02;;;;;;;22.67;19.55;;;23.00;70.00;;;;;;4925504;29;20217;-82
2021/06/22 03:44:32;;;;;;;22.83;19.38;;;23.00;70.30;;;;;;4925622;29;20189;-81
2021/06/22 03:46:59;;;;;;;21.08;18.90;;;23.00;70.30;;;;;;4941872;29;20216;-82
2021/06/22 03:49:26;;;;;;;21.25;18.83;;;22.90;70.40;;;;;;4925613;29;20232;-82
2021/06/22 03:51:58;;;;;;;23.08;19.58;;;23.00;70.10;;;;;;4910133;29;20189;-82
2021/06/22 03:54:28;;;;;;;21.15;18.95;;;23.00;70.00;;;;;;4941466;29;20189;-82
2021/06/22 03:56:53;;;;;;;21.90;19.40;;;23.00;70.40;;;;;;4941840;29;20193;-82
2021/06/22 03:59:24;;;;;;;24.25;20.10;;;23.00;70.30;;;;;;4942353;29;20225;-82
2021/06/22 04:01:50;;;;;;;22.67;19.42;;;23.00;69.90;;;;;;4957104;29;20194;-82
2021/06/22 04:04:15;;;;;;;24.33;20.20;;;23.00;69.90;;;;;;4957778;29;20268;-82
2021/06/22 04:06:41;;;;;;;21.80;19.50;;;23.00;70.10;;;;;;4957969;29;20205;-82
2021/06/22 04:09:07;;;;;;;21.20;18.90;;;23.00;70.00;;;;;;4941832;29;20173;-82
2021/06/22 04:11:33;;;;;;;21.50;19.20;;;23.00;70.10;;;;;;4957937;29;20672;-82
2021/06/22 04:13:59;;;;;;;21.52;18.67;;;23.10;69.60;;;;;;4958943;29;20154;-82
2021/06/22 04:16:25;;;;;;;23.23;19.83;;;23.10;69.90;;;;;;4957926;29;20181;-83
2021/06/22 04:18:50;;;;;;;22.63;19.92;;;23.20;69.80;;;;;;4957952;29;20161;-82
2021/06/22 04:21:16;;;;;;;22.52;20.10;;;23.30;69.30;;;;;;4941775;29;20153;-82
2021/06/22 04:23:44;;;;;;;22.05;19.65;;;23.20;69.10;;;;;;4957674;29;20193;-82
2021/06/22 04:26:12;;;;;;;21.23;19.00;;;23.20;69.20;;;;;;4941074;29;20264;-82
2021/06/22 04:28:41;;;;;;;22.30;20.00;;;23.30;69.50;;;;;;4924939;29;20229;-82
2021/06/22 04:31:09;;;;;;;22.25;18.95;;;23.10;69.50;;;;;;4924892;29;20191;-82
2021/06/22 04:33:37;;;;;;;20.88;18.77;;;23.20;69.40;;;;;;4956768;29;20189;-82
2021/06/22 04:36:07;;;;;;;21.17;18.88;;;23.30;69.10;;;;;;4940487;29;20631;-82
2021/06/22 04:38:35;;;;;;;19.75;17.65;;;23.30;69.20;;;;;;4940601;29;20189;-82
2021/06/22 04:41:03;;;;;;;19.42;17.42;;;23.20;69.00;;;;;;4940608;29;20228;-81
2021/06/22 04:43:31;;;;;;;19.17;17.20;;;23.40;68.80;;;;;;4924662;29;20195;-83
2021/06/22 04:45:58;;;;;;;20.33;18.25;;;23.50;68.40;;;;;;4939401;29;20235;-82
2021/06/22 04:48:24;;;;;;;20.48;18.33;;;23.30;68.40;;;;;;4924557;29;20213;-82
2021/06/22 04:50:52;;;;;;;20.55;18.45;;;23.30;68.40;;;;;;4957082;29;20272;-81
2021/06/22 04:53:19;;;;;;;19.95;17.85;;;23.40;68.50;;;;;;4926057;29;20187;-82
2021/06/22 04:55:45;;;;;;;20.20;18.10;;;23.40;68.40;;;;;;4956966;29;20196;-82
2021/06/22 04:58:10;;;;;;;21.33;19.13;;;23.40;68.40;;;;;;4958116;29;20166;-82
2021/06/22 05:00:36;;;;;;;21.02;18.80;;;23.40;68.50;;;;;;4957747;29;20161;-82
2021/06/22 05:03:03;;;;;;;19.30;17.30;;;23.40;68.50;;;;;;4956635;29;20177;-82
2021/06/22 05:05:29;;;;;;;20.33;18.23;;;23.40;68.50;;;;;;4940092;29;20676;-82
2021/06/22 05:07:56;;;;;;;19.85;17.75;;;23.50;68.30;;;;;;4957736;28;20309;-82
2021/06/22 05:10:23;;;;;;;20.10;18.00;;;23.40;68.40;;;;;;4924040;29;20181;-82
2021/06/22 05:12:50;;;;;;;19.95;17.95;;;23.40;68.30;;;;;;4940024;29;20264;-82
2021/06/22 05:15:17;;;;;;;21.20;19.00;;;23.50;68.30;;;;;;4955746;29;20240;-83
2021/06/22 05:17:43;;;;;;;21.00;18.80;;;23.50;67.90;;;;;;4956481;29;20173;-82
2021/06/22 05:20:09;;;;;;;19.70;17.67;;;23.40;68.30;;;;;;4957647;29;20684;-82
2021/06/22 05:22:35;;;;;;;20.67;18.55;;;23.40;68.40;;;;;;4940791;29;20173;-81
2021/06/22 05:25:01;;;;;;;19.63;17.42;;;23.40;68.50;;;;;;4957037;29;20665;-81
2021/06/22 05:27:26;;;;;;;21.35;18.75;;;23.40;68.30;;;;;;4957518;28;20267;-81
2021/06/22 05:29:56;;;;;;;21.52;19.15;;;23.40;68.40;;;;;;4957615;29;20573;-81
2021/06/22 05:32:22;;;;;;;19.00;17.00;;;23.40;68.60;;;;;;4924634;29;20671;-81
2021/06/22 05:34:48;;;;;;;19.38;17.33;;;23.40;68.90;;;;;;4925109;29;20165;-80
2021/06/22 05:37:13;;;;;;;19.92;17.92;;;23.40;68.30;;;;;;4957473;29;20196;-82
2021/06/22 05:39:39;;;;;;;19.13;17.13;;;23.40;68.50;;;;;;4957456;29;20200;-82
2021/06/22 05:42:06;;;;;;;18.95;17.05;;;23.40;68.70;;;;;;4955961;29;20190;-81
2021/06/22 05:44:31;;;;;;;20.20;18.10;;;23.40;68.70;;;;;;4956427;29;20537;-83
2021/06/22 05:46:57;;;;;;;19.67;17.58;;;23.40;68.40;;;;;;4939432;29;20201;-81
2021/06/22 05:49:23;;;;;;;19.88;17.77;;;23.50;68.40;;;;;;4955939;29;20637;-82
2021/06/22 05:51:49;;;;;;;19.80;17.15;;;23.60;68.20;;;;;;4956015;29;20161;-82
2021/06/22 05:54:15;;;;;;;20.98;18.77;;;23.60;68.00;;;;;;4955942;29;20150;-82
2021/06/22 05:56:40;;;;;;;18.95;17.00;;;23.50;67.90;;;;;;4955713;29;20166;-82
2021/06/22 05:59:06;;;;;;;19.52;17.52;;;23.50;68.30;;;;;;4956738;28;20165;-80
2021/06/22 06:01:32;;;;;;;19.67;17.60;;;23.40;68.70;;;;;;4955946;29;20586;-81
2021/06/22 06:03:57;;;;;;;18.85;16.95;;;23.50;68.40;;;;;;4955821;29;20637;-81
2021/06/22 06:06:23;;;;;;;19.20;17.20;;;23.60;69.40;;;;;;4955755;29;20189;-81
2021/06/22 06:08:49;;;;;;;20.70;18.00;;;23.70;68.00;;;;;;4956776;29;20162;-82
2021/06/22 06:11:15;;;;;;;19.80;17.83;;;23.60;68.20;;;;;;4939612;29;20197;-81
2021/06/22 06:13:41;;;;;;;20.33;16.08;;;23.50;68.30;;;;;;4955127;29;20189;-81
2021/06/22 06:16:07;;;;;;;17.92;16.02;;;23.50;68.70;;;;;;4955223;29;20501;-82
2021/06/22 06:18:34;;;;;;;20.45;17.10;;;23.60;68.70;;;;;;4955420;29;20162;-81
2021/06/22 06:21:01;;;;;;;19.83;17.73;;;23.50;68.10;;;;;;4938479;29;20681;-82
2021/06/22 06:23:31;;;;;;;19.88;17.75;;;23.50;68.30;;;;;;4922314;29;20217;-81
2021/06/22 06:25:57;;;;;;;18.52;16.42;;;23.60;68.30;;;;;;4939319;29;20166;-81
2021/06/22 06:28:30;;;;;;;19.52;17.52;;;23.50;68.60;;;;;;4938615;29;20218;-82
2021/06/22 06:30:56;;;;;;;18.85;16.98;;;23.60;68.60;;;;;;4925186;29;20583;-82
2021/06/22 06:33:22;;;;;;;18.65;16.67;;;23.60;68.20;;;;;;4938862;29;20157;-82
2021/06/22 06:35:47;;;;;;;19.48;16.15;;;23.50;68.30;;;;;;4954947;29;20153;-81
2021/06/22 06:38:13;;;;;;;18.65;16.65;;;23.60;68.60;;;;;;4955688;29;20157;-82
2021/06/22 06:40:41;;;;;;;18.67;16.73;;;23.60;68.40;;;;;;4955675;29;20193;-82
2021/06/22 06:43:06;;;;;;;18.20;16.40;;;23.60;68.40;;;;;;4955019;29;20169;-81
2021/06/22 06:45:33;;;;;;;19.23;17.20;;;23.60;68.50;;;;;;4956503;29;20696;-83
2021/06/22 06:47:58;;;;;;;18.25;16.45;;;23.60;68.30;;;;;;4941317;29;20185;-81
2021/06/22 06:50:24;;;;;;;18.80;16.67;;;23.70;68.00;;;;;;4941285;29;20221;-83
2021/06/22 06:52:50;;;;;;;18.70;16.70;;;23.50;68.10;;;;;;4937976;29;20290;-86
2021/06/22 06:58:03;;;;;;;19.02;16.58;;;23.70;68.50;;;;;;4952216;29;20216;-82
2021/06/22 07:00:31;;;;;;;18.50;16.50;;;23.70;68.50;;;;;;4951953;29;20165;-81
2021/06/22 07:02:57;;;;;;;17.55;15.77;;;23.70;68.60;;;;;;4952738;29;20162;-80
2021/06/22 07:05:23;;;;;;;18.77;16.88;;;23.80;68.80;;;;;;4953221;29;20191;-81
2021/06/22 07:07:49;;;;;;;19.05;17.05;;;23.80;67.80;;;;;;4954327;29;20213;-80
2021/06/22 07:10:15;;;;;;;17.45;15.63;;;23.80;67.80;;;;;;4955096;29;20273;-80
2021/06/22 07:12:42;;;;;;;18.23;16.42;;;23.70;68.00;;;;;;4956089;29;20549;-80
2021/06/22 07:15:08;;;;;;;18.13;16.23;;;23.80;68.20;;;;;;4955421;29;20648;-81
2021/06/22 07:17:34;;;;;;;18.38;16.48;;;23.70;68.90;;;;;;4939482;29;20735;-80
2021/06/22 07:20:00;;;;;;;18.08;16.17;;;23.80;68.60;;;;;;4955105;29;20213;-82
2021/06/22 07:22:26;;;;;;;17.88;16.08;;;23.80;68.20;;;;;;4954310;29;20169;-81
2021/06/22 07:24:52;;;;;;;17.92;16.02;;;23.80;68.40;;;;;;4938876;29;20200;-82
2021/06/22 07:27:18;;;;;;;20.48;16.48;;;23.80;69.00;;;;;;4954213;29;20250;-81
2021/06/22 07:29:47;;;;;;;17.20;15.40;;;23.70;68.50;;;;;;4954464;29;20574;-82
2021/06/22 07:32:13;;;;;;;17.27;15.57;;;23.80;68.70;;;;;;4922327;29;20196;-82
2021/06/22 07:34:39;;;;;;;18.02;16.23;;;23.90;68.20;;;;;;4938926;29;20547;-81
2021/06/22 07:37:05;;;;;;;17.67;15.88;;;23.80;68.20;;;;;;4954922;29;20185;-81
2021/06/22 07:39:31;;;;;;;19.60;15.85;;;23.80;68.70;;;;;;4954796;29;20191;-80
2021/06/22 07:41:57;;;;;;;20.30;15.20;;;23.90;68.70;;;;;;4955088;29;20166;-80
2021/06/22 07:44:23;;;;;;;18.33;15.75;;;23.80;68.60;;;;;;4955001;29;20518;-81
2021/06/22 07:46:49;;;;;;;18.67;15.82;;;23.90;68.30;;;;;;4955079;29;20193;-81
2021/06/22 07:49:15;;;;;;;18.75;16.10;;;23.90;68.40;;;;;;4954788;29;20524;-80
2021/06/22 07:51:41;;;;;;;20.20;16.23;;;24.00;68.60;;;;;;4955750;29;20528;-81
2021/06/22 07:54:08;;;;;;;20.20;15.70;;;24.00;68.60;;;;;;4955499;29;20285;-80
2021/06/22 07:56:34;;;;;;;17.77;15.98;;;23.90;69.20;;;;;;4954808;29;20166;-80
2021/06/22 07:58:59;;;;;;;19.42;16.30;;;24.00;68.30;;;;;;4938640;29;20165;-82
2021/06/22 08:01:29;;;;;;;17.25;15.52;;;24.00;67.60;;;;;;4955090;29;20524;-81
2021/06/22 08:03:55;;;;;;;17.58;15.77;;;24.00;68.30;;;;;;4939970;29;20193;-82
2021/06/22 08:06:21;;;;;;;17.27;15.52;;;24.00;68.30;;;;;;4958694;29;20229;-82
2021/06/22 08:08:47;;;;;;;18.73;16.38;;;23.90;68.50;;;;;;4956695;29;20174;-82
2021/06/22 08:11:13;;;;;;;17.17;15.40;;;23.90;69.80;;;;;;4957624;29;20162;-81
2021/06/22 08:13:39;;;;;;;18.17;16.10;;;23.90;68.90;;;;;;4955857;29;20158;-82
2021/06/22 08:16:05;;;;;;;17.55;15.68;;;23.90;68.90;;;;;;4955987;29;20154;-80
2021/06/22 08:18:33;;;;;;;17.30;15.50;;;23.90;68.70;;;;;;4938749;29;20169;-80
2021/06/22 08:21:03;;;;;;;18.20;16.30;;;23.90;69.10;;;;;;4956720;28;20154;-81
2021/06/22 08:23:33;;;;;;;17.73;15.75;;;23.90;69.00;;;;;;4926516;29;20185;-81
2021/06/22 08:26:05;;;;;;;17.20;15.50;;;23.90;68.80;;;;;;4958357;29;20671;-81
2021/06/22 08:28:34;;;;;;;16.98;15.00;;;24.00;69.60;;;;;;4926725;29;20228;-81
2021/06/22 08:31:00;;;;;;;17.60;15.90;;;24.10;68.70;;;;;;4927448;29;20193;-81
2021/06/22 08:33:26;;;;;;;17.48;15.43;;;24.10;68.50;;;;;;4961324;29;20179;-81
2021/06/22 08:35:52;;;;;;;16.70;15.00;;;24.20;68.00;;;;;;4959755;29;20643;-81
2021/06/22 08:38:18;;;;;;;16.80;15.10;;;24.20;67.80;;;;;;4960003;29;20157;-80
2021/06/22 08:40:45;;;;;;;16.48;14.77;;;24.20;68.10;;;;;;4960197;29;20302;-80
2021/06/22 08:43:12;;;;;;;17.33;15.57;;;24.20;68.30;;;;;;4959920;28;20668;-79
2021/06/22 08:45:39;;;;;;;16.85;15.05;;;24.10;68.20;;;;;;4961021;28;20173;-81
2021/06/22 08:48:06;;;;;;;17.70;15.80;;;24.00;68.50;;;;;;4961148;28;20578;-82
2021/06/22 08:50:32;;;;;;;16.70;15.00;;;24.10;68.70;;;;;;4962019;28;20157;-80
2021/06/22 08:53:03;;;;;;;16.70;15.05;;;24.00;69.00;;;;;;4963278;29;20176;-80
2021/06/22 08:55:29;;;;;;;18.30;16.50;;;24.10;68.60;;;;;;4946242;29;20194;-80
2021/06/22 08:58:08;;;;;;;17.40;15.60;;;24.00;68.50;;;;;;4963565;28;20617;-81
2021/06/22 09:00:36;;;;;;;17.95;16.15;;;24.00;69.00;;;;;;4944550;29;20233;-80
2021/06/22 09:03:07;;;;;;;18.17;16.38;;;24.00;69.10;;;;;;4961934;28;20172;-82
2021/06/22 09:05:33;;;;;;;16.77;15.07;;;23.90;69.10;;;;;;4946445;29;20192;-81
2021/06/22 09:08:03;;;;;;;17.48;15.77;;;23.90;69.60;;;;;;4963020;29;20307;-81
2021/06/22 09:10:33;;;;;;;17.95;15.52;;;24.00;69.20;;;;;;4962521;29;20177;-83
2021/06/22 09:13:16;;;;;;;18.25;15.45;;;23.90;69.50;;;;;;4958034;29;20240;-81
2021/06/22 09:15:44;;;;;;;20.92;16.65;;;24.00;69.30;;;;;;4960026;28;20168;-80
2021/06/22 09:18:30;;;;;;;17.38;15.50;;;24.00;69.30;;;;;;4960403;28;20174;-82
2021/06/22 09:21:06;;;;;;;17.58;15.77;;;24.00;69.60;;;;;;4959874;28;20161;-81
2021/06/22 09:23:38;;;;;;;17.55;15.77;;;24.00;69.40;;;;;;4960881;28;20680;-84
2021/06/22 09:26:17;;;;;;;19.10;15.60;;;24.00;69.90;;;;;;4928382;29;20252;-83
2021/06/22 09:28:43;;;;;;;17.02;15.32;;;24.00;70.10;;;;;;4943022;29;20271;-81
2021/06/22 09:31:11;;;;;;;17.95;16.15;;;24.10;69.70;;;;;;4961113;29;20154;-81
2021/06/22 09:33:40;;;;;;;16.85;15.15;;;24.00;69.10;;;;;;4958935;28;20158;-81
2021/06/22 09:36:10;;;;;;;16.80;15.20;;;24.00;69.50;;;;;;4960914;28;20169;-80
2021/06/22 09:38:44;;;;;;;17.25;15.55;;;24.00;69.50;;;;;;4966446;29;20158;-82
2021/06/22 09:41:18;;;;;;;18.00;16.10;;;24.10;69.50;;;;;;4929797;29;20192;-80
2021/06/22 09:43:46;;;;;;;16.92;15.23;;;24.10;69.80;;;;;;4961245;28;20158;-81
2021/06/22 09:46:13;;;;;;;18.17;16.13;;;24.00;69.40;;;;;;4959483;29;20521;-81
2021/06/22 09:48:41;;;;;;;16.65;15.05;;;24.00;69.20;;;;;;4960622;29;20162;-81
2021/06/22 09:51:07;;;;;;;16.75;15.07;;;24.00;69.70;;;;;;4959889;29;20169;-79
2021/06/22 09:53:36;;;;;;;17.80;15.90;;;24.00;69.50;;;;;;4962669;29;20157;-80
2021/06/22 09:56:05;;;;;;;17.33;15.63;;;24.00;69.30;;;;;;4976790;28;20188;-82
2021/06/22 09:58:40;;;;;;;16.42;14.82;;;24.00;69.40;;;;;;4990700;28;20515;-81
2021/06/22 10:01:20;;;;;;;16.65;14.70;;;24.00;69.60;;;;;;4960134;28;20161;-80
2021/06/22 10:03:46;;;;;;;16.00;14.23;;;24.20;69.60;;;;;;4961648;28;20173;-80
2021/06/22 10:06:14;;;;;;;17.13;15.32;;;24.20;69.20;;;;;;4989973;28;20165;-80
2021/06/22 10:08:51;;;;;;;17.15;15.18;;;24.20;69.10;;;;;;4957559;29;20309;-81
2021/06/22 10:11:31;;;;;;;16.48;14.75;;;24.30;68.90;;;;;;4991387;28;20154;-82
2021/06/22 10:13:57;;;;;;;16.80;15.10;;;24.40;69.00;;;;;;4991300;28;20158;-80
2021/06/22 10:16:26;;;;;;;16.73;15.00;;;24.40;68.50;;;;;;4991295;28;20164;-79
2021/06/22 10:18:52;;;;;;;16.13;14.52;;;24.30;69.00;;;;;;4974045;28;20153;-79
2021/06/22 10:21:18;;;;;;;16.55;14.95;;;24.30;69.60;;;;;;4989536;28;20161;-82
2021/06/22 10:23:44;;;;;;;16.73;15.02;;;24.40;69.20;;;;;;4988948;28;20185;-80
2021/06/22 10:26:10;;;;;;;16.17;14.48;;;24.50;68.80;;;;;;4957797;29;20543;-81
2021/06/22 10:28:40;;;;;;;17.23;15.43;;;24.50;68.50;;;;;;4958219;29;20233;-80
2021/06/22 10:31:06;;;;;;;16.95;14.93;;;24.50;69.00;;;;;;4957345;29;20243;-81
2021/06/22 10:33:32;;;;;;;16.33;14.60;;;24.40;69.10;;;;;;4974098;28;20518;-81
2021/06/22 10:35:58;;;;;;;16.33;14.73;;;24.40;69.00;;;;;;4974619;28;20621;-79
2021/06/22 10:38:41;;;;;;;16.55;14.90;;;24.40;68.90;;;;;;4962003;29;20208;-79
2021/06/22 10:41:11;;;;;;;16.95;15.20;;;24.40;69.00;;;;;;4976804;28;20645;-81
2021/06/22 10:43:39;;;;;;;16.48;14.88;;;24.40;69.50;;;;;;4961874;28;20189;-79
2021/06/22 10:46:06;;;;;;;15.73;14.15;;;24.30;69.30;;;;;;4962572;28;20146;-80
2021/06/22 10:48:46;;;;;;;16.17;14.60;;;24.30;69.10;;;;;;4978230;28;20154;-78
2021/06/22 10:51:41;;;;;;;16.52;14.65;;;24.30;69.30;;;;;;4963380;28;20157;-78
2021/06/22 10:54:07;;;;;;;17.15;15.05;;;24.30;70.40;;;;;;4992045;28;20164;-80
2021/06/22 10:56:38;;;;;;;16.80;15.10;;;24.30;69.90;;;;;;4960735;29;20168;-80
2021/06/22 10:59:21;;;;;;;16.30;14.60;;;24.30;70.10;;;;;;4942556;29;20189;-80
2021/06/22 11:02:02;;;;;;;16.42;14.73;;;24.30;69.70;;;;;;4961216;28;20209;-79
2021/06/22 11:04:28;;;;;;;16.20;14.70;;;24.30;69.80;;;;;;4991450;28;20248;-79
2021/06/22 11:07:15;;;;;;;16.27;14.68;;;24.30;69.60;;;;;;4991150;28;20664;-80
2021/06/22 11:10:11;;;;;;;15.93;14.43;;;24.30;69.20;;;;;;4959175;29;20258;-80
2021/06/22 11:12:51;;;;;;;16.75;14.95;;;24.30;69.50;;;;;;4960571;28;20510;-78
2021/06/22 11:15:19;;;;;;;16.75;15.02;;;24.30;69.80;;;;;;4943043;29;20181;-79
2021/06/22 11:18:00;;;;;;;15.70;14.20;;;24.30;69.40;;;;;;4958975;29;20187;-79
2021/06/22 11:20:30;;;;;;;15.77;14.18;;;24.20;69.40;;;;;;4928347;29;20185;-78
2021/06/22 11:23:06;;;;;;;16.80;15.18;;;24.20;69.90;;;;;;4947232;29;20260;-79
2021/06/22 11:25:50;;;;;;;15.98;14.43;;;24.30;70.20;;;;;;4963405;29;20185;-78
2021/06/22 11:28:23;;;;;;;16.30;14.68;;;24.30;69.90;;;;;;4962908;29;20229;-81
2021/06/22 11:30:58;;;;;;;16.80;15.18;;;24.40;70.00;;;;;;4931084;29;20181;-80
2021/06/22 11:33:44;;;;;;;16.83;15.15;;;24.40;69.70;;;;;;4947716;29;20177;-81
2021/06/22 11:36:27;;;;;;;16.90;15.27;;;24.40;69.40;;;;;;4940784;29;20222;-80
2021/06/22 11:39:16;;;;;;;17.05;15.25;;;24.40;69.40;;;;;;4940473;29;20264;-81
2021/06/22 11:42:02;;;;;;;15.68;14.07;;;24.40;69.20;;;;;;4956964;29;20246;-81
2021/06/22 11:44:39;;;;;;;16.15;14.48;;;24.40;68.80;;;;;;4926980;29;20185;-79
2021/06/22 11:47:05;;;;;;;15.95;14.40;;;24.40;69.60;;;;;;4955901;29;20200;-83
2021/06/22 11:49:43;;;;;;;15.82;14.27;;;24.40;69.30;;;;;;4941815;29;20169;-83
2021/06/22 11:52:13;;;;;;;16.10;14.52;;;24.40;70.10;;;;;;4955909;29;20166;-82
2021/06/22 11:55:01;;;;;;;16.10;14.45;;;24.40;69.20;;;;;;4957354;28;20156;-80
2021/06/22 11:57:29;;;;;;;16.35;14.75;;;24.30;69.50;;;;;;4963796;28;20165;-81
2021/06/22 11:59:57;;;;;;;16.50;14.90;;;24.40;69.60;;;;;;4962116;29;20209;-82
2021/06/22 12:02:22;;;;;;;16.45;14.85;;;24.40;69.40;;;;;;4962002;28;20157;-81
2021/06/22 12:04:49;;;;;;;16.58;14.98;;;24.30;70.00;;;;;;4959465;29;20188;-80
2021/06/22 12:07:19;;;;;;;16.60;15.00;;;24.40;69.70;;;;;;4960450;29;20212;-79
2021/06/22 12:09:45;;;;;;;15.98;14.38;;;24.30;69.70;;;;;;4943950;29;20182;-81
2021/06/22 12:12:11;;;;;;;16.55;14.85;;;24.50;69.80;;;;;;4960183;29;20165;-82
2021/06/22 12:14:46;;;;;;;15.77;14.20;;;24.50;69.80;;;;;;4959902;29;20174;-80
2021/06/22 12:17:14;;;;;;;16.50;14.73;;;24.50;69.70;;;;;;4929427;29;20176;-81
2021/06/22 12:19:40;;;;;;;15.93;14.43;;;24.50;69.90;;;;;;4962821;28;20169;-80
2021/06/22 12:22:05;;;;;;;16.45;14.85;;;24.60;69.00;;;;;;4961791;28;20301;-79
2021/06/22 12:24:31;;;;;;;16.10;14.60;;;24.60;68.90;;;;;;4962342;29;20165;-80
2021/06/22 12:26:56;;;;;;;16.50;14.93;;;24.60;68.60;;;;;;4959313;29;20189;-81
2021/06/22 12:29:24;;;;;;;16.48;14.88;;;24.60;68.80;;;;;;4961056;29;20188;-81
2021/06/22 12:31:57;;;;;;;16.13;14.57;;;24.60;68.90;;;;;;4960793;29;20561;-81
2021/06/22 12:34:24;;;;;;;15.75;14.18;;;24.60;68.70;;;;;;4959030;29;20161;-80
2021/06/22 12:36:50;;;;;;;16.35;14.80;;;24.60;68.70;;;;;;4961263;28;20229;-81